sensor_id;sensor_type;location;lat;lon;timestamp;P1;durP1;ratioP1;P2;durP2;ratioP2
7215;SDS011;3649;48.798;9.798;2023-07-29T00:02:17;3.73;;;3.43;;
7215;SDS011;3649;48.798;9.798;2023-07-29T00:04:44;4.33;;;3.50;;
7215;SDS011;3649;48.798;9.798;2023-07-29T00:07:12;5.47;;;3.87;;
7215;SDS011;3649;48.798;9.798;2023-07-29T00:09:41;4.17;;;3.73;;
7215;SDS011;3649;48.798;9.798;2023-07-29T00:12:07;4.73;;;3.57;;
7215;SDS011;3649;48.798;9.798;2023-07-29T00:14:34;3.83;;;3.37;;
7215;SDS011;3649;48.798;9.798;2023-07-29T00:17:01;3.43;;;3.13;;
7215;SDS011;3649;48.798;9.798;2023-07-29T00:19:28;5.33;;;3.73;;
7215;SDS011;3649;48.798;9.798;2023-07-29T00:21:55;4.73;;;4.23;;
7215;SDS011;3649;48.798;9.798;2023-07-29T00:24:22;4.27;;;2.67;;
7215;SDS011;3649;48.798;9.798;2023-07-29T00:26:48;3.93;;;2.80;;
7215;SDS011;3649;48.798;9.798;2023-07-29T00:29:15;6.13;;;3.60;;
7215;SDS011;3649;48.798;9.798;2023-07-29T00:31:42;3.10;;;2.90;;
7215;SDS011;3649;48.798;9.798;2023-07-29T00:34:09;2.40;;;2.20;;
7215;SDS011;3649;48.798;9.798;2023-07-29T00:36:36;5.47;;;2.90;;
7215;SDS011;3649;48.798;9.798;2023-07-29T00:39:03;5.47;;;2.47;;
7215;SDS011;3649;48.798;9.798;2023-07-29T00:41:30;2.73;;;2.53;;
7215;SDS011;3649;48.798;9.798;2023-07-29T00:43:57;2.70;;;2.50;;
7215;SDS011;3649;48.798;9.798;2023-07-29T00:46:24;3.40;;;3.10;;
7215;SDS011;3649;48.798;9.798;2023-07-29T00:48:51;5.20;;;2.57;;
7215;SDS011;3649;48.798;9.798;2023-07-29T00:51:18;2.80;;;2.60;;
7215;SDS011;3649;48.798;9.798;2023-07-29T00:53:45;3.37;;;2.63;;
7215;SDS011;3649;48.798;9.798;2023-07-29T00:56:12;3.27;;;2.97;;
7215;SDS011;3649;48.798;9.798;2023-07-29T00:58:39;4.73;;;2.70;;
7215;SDS011;3649;48.798;9.798;2023-07-29T01:01:06;5.03;;;3.27;;
7215;SDS011;3649;48.798;9.798;2023-07-29T01:03:33;4.30;;;2.80;;
7215;SDS011;3649;48.798;9.798;2023-07-29T01:08:43;3.23;;;2.50;;
7215;SDS011;3649;48.798;9.798;2023-07-29T01:16:57;3.00;;;2.60;;
7215;SDS011;3649;48.798;9.798;2023-07-29T01:22:36;3.77;;;1.97;;
7215;SDS011;3649;48.798;9.798;2023-07-29T01:25:03;3.80;;;2.07;;
7215;SDS011;3649;48.798;9.798;2023-07-29T01:27:30;2.47;;;2.27;;
7215;SDS011;3649;48.798;9.798;2023-07-29T01:29:58;2.83;;;2.10;;
7215;SDS011;3649;48.798;9.798;2023-07-29T01:32:34;2.70;;;2.30;;
7215;SDS011;3649;48.798;9.798;2023-07-29T01:37:47;2.50;;;2.30;;
7215;SDS011;3649;48.798;9.798;2023-07-29T01:40:17;2.70;;;2.50;;
7215;SDS011;3649;48.798;9.798;2023-07-29T01:42:44;2.50;;;2.30;;
7215;SDS011;3649;48.798;9.798;2023-07-29T01:45:12;2.50;;;2.37;;
7215;SDS011;3649;48.798;9.798;2023-07-29T01:47:39;3.00;;;2.80;;
7215;SDS011;3649;48.798;9.798;2023-07-29T01:50:07;4.13;;;2.93;;
7215;SDS011;3649;48.798;9.798;2023-07-29T01:52:35;2.90;;;2.70;;
7215;SDS011;3649;48.798;9.798;2023-07-29T01:55:02;4.13;;;2.70;;
7215;SDS011;3649;48.798;9.798;2023-07-29T01:57:29;4.37;;;2.40;;
7215;SDS011;3649;48.798;9.798;2023-07-29T01:59:56;3.07;;;2.87;;
7215;SDS011;3649;48.798;9.798;2023-07-29T02:02:23;3.83;;;2.80;;
7215;SDS011;3649;48.798;9.798;2023-07-29T02:04:50;5.57;;;3.03;;
7215;SDS011;3649;48.798;9.798;2023-07-29T02:07:18;3.53;;;2.67;;
7215;SDS011;3649;48.798;9.798;2023-07-29T02:09:45;3.30;;;3.00;;
7215;SDS011;3649;48.798;9.798;2023-07-29T02:12:12;3.97;;;2.53;;
7215;SDS011;3649;48.798;9.798;2023-07-29T02:14:39;3.93;;;3.17;;
7215;SDS011;3649;48.798;9.798;2023-07-29T02:17:06;6.60;;;2.97;;
7215;SDS011;3649;48.798;9.798;2023-07-29T02:19:33;2.93;;;2.73;;
7215;SDS011;3649;48.798;9.798;2023-07-29T02:22:00;3.47;;;3.00;;
7215;SDS011;3649;48.798;9.798;2023-07-29T02:24:26;3.13;;;2.83;;
7215;SDS011;3649;48.798;9.798;2023-07-29T02:26:53;3.03;;;2.67;;
7215;SDS011;3649;48.798;9.798;2023-07-29T02:29:20;9.13;;;3.00;;
7215;SDS011;3649;48.798;9.798;2023-07-29T02:31:48;4.87;;;2.90;;
7215;SDS011;3649;48.798;9.798;2023-07-29T02:34:14;2.30;;;2.13;;
7215;SDS011;3649;48.798;9.798;2023-07-29T02:36:41;3.33;;;2.77;;
7215;SDS011;3649;48.798;9.798;2023-07-29T02:39:08;3.33;;;2.63;;
7215;SDS011;3649;48.798;9.798;2023-07-29T02:41:35;4.80;;;2.67;;
7215;SDS011;3649;48.798;9.798;2023-07-29T02:44:02;2.70;;;2.50;;
7215;SDS011;3649;48.798;9.798;2023-07-29T02:46:29;5.23;;;2.93;;
7215;SDS011;3649;48.798;9.798;2023-07-29T02:48:56;4.63;;;2.93;;
7215;SDS011;3649;48.798;9.798;2023-07-29T02:51:23;4.83;;;2.63;;
7215;SDS011;3649;48.798;9.798;2023-07-29T02:53:50;5.33;;;2.50;;
7215;SDS011;3649;48.798;9.798;2023-07-29T02:56:17;6.10;;;2.50;;
7215;SDS011;3649;48.798;9.798;2023-07-29T02:58:43;4.87;;;2.70;;
7215;SDS011;3649;48.798;9.798;2023-07-29T03:01:11;2.60;;;2.40;;
7215;SDS011;3649;48.798;9.798;2023-07-29T03:03:39;4.63;;;2.47;;
7215;SDS011;3649;48.798;9.798;2023-07-29T03:06:07;5.77;;;2.83;;
7215;SDS011;3649;48.798;9.798;2023-07-29T03:08:35;3.67;;;2.53;;
7215;SDS011;3649;48.798;9.798;2023-07-29T03:11:09;3.60;;;2.30;;
7215;SDS011;3649;48.798;9.798;2023-07-29T03:13:39;2.83;;;2.60;;
7215;SDS011;3649;48.798;9.798;2023-07-29T03:16:07;3.67;;;2.43;;
7215;SDS011;3649;48.798;9.798;2023-07-29T03:18:35;2.60;;;2.23;;
7215;SDS011;3649;48.798;9.798;2023-07-29T03:21:03;2.80;;;2.60;;
7215;SDS011;3649;48.798;9.798;2023-07-29T03:23:30;2.50;;;2.20;;
7215;SDS011;3649;48.798;9.798;2023-07-29T03:25:58;3.40;;;2.50;;
7215;SDS011;3649;48.798;9.798;2023-07-29T03:28:26;2.37;;;2.27;;
7215;SDS011;3649;48.798;9.798;2023-07-29T03:30:55;5.07;;;2.57;;
7215;SDS011;3649;48.798;9.798;2023-07-29T03:33:23;4.17;;;2.83;;
7215;SDS011;3649;48.798;9.798;2023-07-29T03:35:51;4.83;;;2.63;;
7215;SDS011;3649;48.798;9.798;2023-07-29T03:38:18;6.73;;;1.97;;
7215;SDS011;3649;48.798;9.798;2023-07-29T03:40:45;2.17;;;1.80;;
7215;SDS011;3649;48.798;9.798;2023-07-29T03:43:12;4.47;;;1.80;;
7215;SDS011;3649;48.798;9.798;2023-07-29T03:45:39;3.17;;;2.30;;
7215;SDS011;3649;48.798;9.798;2023-07-29T03:48:07;5.50;;;2.60;;
7215;SDS011;3649;48.798;9.798;2023-07-29T03:50:34;6.63;;;2.50;;
7215;SDS011;3649;48.798;9.798;2023-07-29T03:53:02;3.40;;;2.13;;
7215;SDS011;3649;48.798;9.798;2023-07-29T03:55:29;2.87;;;2.43;;
7215;SDS011;3649;48.798;9.798;2023-07-29T03:58:00;4.83;;;2.13;;
7215;SDS011;3649;48.798;9.798;2023-07-29T04:00:27;5.20;;;2.47;;
7215;SDS011;3649;48.798;9.798;2023-07-29T04:02:54;2.73;;;2.33;;
7215;SDS011;3649;48.798;9.798;2023-07-29T04:05:21;2.67;;;2.47;;
7215;SDS011;3649;48.798;9.798;2023-07-29T04:07:48;3.97;;;2.23;;
7215;SDS011;3649;48.798;9.798;2023-07-29T04:10:14;6.57;;;2.60;;
7215;SDS011;3649;48.798;9.798;2023-07-29T04:12:42;2.30;;;2.03;;
7215;SDS011;3649;48.798;9.798;2023-07-29T04:15:09;2.93;;;2.13;;
7215;SDS011;3649;48.798;9.798;2023-07-29T04:17:36;2.60;;;2.00;;
7215;SDS011;3649;48.798;9.798;2023-07-29T04:20:03;3.27;;;1.93;;
7215;SDS011;3649;48.798;9.798;2023-07-29T04:22:30;2.83;;;2.20;;
7215;SDS011;3649;48.798;9.798;2023-07-29T04:24:57;2.57;;;1.87;;
7215;SDS011;3649;48.798;9.798;2023-07-29T04:27:25;2.63;;;2.40;;
7215;SDS011;3649;48.798;9.798;2023-07-29T04:29:52;3.50;;;1.93;;
7215;SDS011;3649;48.798;9.798;2023-07-29T04:32:19;3.00;;;2.13;;
7215;SDS011;3649;48.798;9.798;2023-07-29T04:34:46;2.50;;;1.90;;
7215;SDS011;3649;48.798;9.798;2023-07-29T04:37:13;3.53;;;1.83;;
7215;SDS011;3649;48.798;9.798;2023-07-29T04:39:40;7.50;;;2.20;;
7215;SDS011;3649;48.798;9.798;2023-07-29T04:42:07;2.47;;;2.13;;
7215;SDS011;3649;48.798;9.798;2023-07-29T04:44:34;2.83;;;2.20;;
7215;SDS011;3649;48.798;9.798;2023-07-29T04:47:01;3.07;;;1.93;;
7215;SDS011;3649;48.798;9.798;2023-07-29T04:49:27;3.40;;;2.50;;
7215;SDS011;3649;48.798;9.798;2023-07-29T04:51:54;4.23;;;2.33;;
7215;SDS011;3649;48.798;9.798;2023-07-29T04:54:21;2.40;;;2.20;;
7215;SDS011;3649;48.798;9.798;2023-07-29T04:56:48;5.70;;;2.17;;
7215;SDS011;3649;48.798;9.798;2023-07-29T04:59:15;4.53;;;2.17;;
7215;SDS011;3649;48.798;9.798;2023-07-29T05:01:42;4.70;;;2.50;;
7215;SDS011;3649;48.798;9.798;2023-07-29T05:04:09;4.37;;;2.67;;
7215;SDS011;3649;48.798;9.798;2023-07-29T05:06:36;7.90;;;3.20;;
7215;SDS011;3649;48.798;9.798;2023-07-29T05:09:13;5.83;;;2.60;;
7215;SDS011;3649;48.798;9.798;2023-07-29T05:11:44;5.03;;;2.80;;
7215;SDS011;3649;48.798;9.798;2023-07-29T05:14:15;3.13;;;2.50;;
7215;SDS011;3649;48.798;9.798;2023-07-29T05:16:43;3.10;;;2.43;;
7215;SDS011;3649;48.798;9.798;2023-07-29T05:19:11;3.47;;;2.27;;
7215;SDS011;3649;48.798;9.798;2023-07-29T05:21:38;2.60;;;2.40;;
7215;SDS011;3649;48.798;9.798;2023-07-29T05:24:05;3.10;;;2.37;;
7215;SDS011;3649;48.798;9.798;2023-07-29T05:26:32;2.17;;;2.00;;
7215;SDS011;3649;48.798;9.798;2023-07-29T05:28:59;6.53;;;2.83;;
7215;SDS011;3649;48.798;9.798;2023-07-29T05:31:26;2.90;;;2.60;;
7215;SDS011;3649;48.798;9.798;2023-07-29T05:33:54;9.90;;;2.50;;
7215;SDS011;3649;48.798;9.798;2023-07-29T05:36:21;2.90;;;2.43;;
7215;SDS011;3649;48.798;9.798;2023-07-29T05:38:47;3.50;;;2.07;;
7215;SDS011;3649;48.798;9.798;2023-07-29T05:41:14;3.40;;;2.03;;
7215;SDS011;3649;48.798;9.798;2023-07-29T05:43:41;2.23;;;2.00;;
7215;SDS011;3649;48.798;9.798;2023-07-29T05:46:09;2.43;;;2.03;;
7215;SDS011;3649;48.798;9.798;2023-07-29T05:48:36;4.00;;;2.57;;
7215;SDS011;3649;48.798;9.798;2023-07-29T05:51:03;2.90;;;2.17;;
7215;SDS011;3649;48.798;9.798;2023-07-29T05:53:31;4.83;;;2.13;;
7215;SDS011;3649;48.798;9.798;2023-07-29T05:55:58;2.57;;;2.13;;
7215;SDS011;3649;48.798;9.798;2023-07-29T05:58:25;7.27;;;2.13;;
7215;SDS011;3649;48.798;9.798;2023-07-29T06:00:52;5.87;;;2.10;;
7215;SDS011;3649;48.798;9.798;2023-07-29T06:03:19;3.37;;;2.40;;
7215;SDS011;3649;48.798;9.798;2023-07-29T06:05:46;3.53;;;2.23;;
7215;SDS011;3649;48.798;9.798;2023-07-29T06:08:16;5.07;;;2.30;;
7215;SDS011;3649;48.798;9.798;2023-07-29T06:10:43;4.37;;;2.60;;
7215;SDS011;3649;48.798;9.798;2023-07-29T06:13:10;3.13;;;2.70;;
7215;SDS011;3649;48.798;9.798;2023-07-29T06:15:37;4.03;;;2.70;;
7215;SDS011;3649;48.798;9.798;2023-07-29T06:18:04;5.07;;;2.47;;
7215;SDS011;3649;48.798;9.798;2023-07-29T06:20:30;4.50;;;2.17;;
7215;SDS011;3649;48.798;9.798;2023-07-29T06:22:57;3.43;;;2.73;;
7215;SDS011;3649;48.798;9.798;2023-07-29T06:25:24;4.67;;;2.60;;
7215;SDS011;3649;48.798;9.798;2023-07-29T06:27:51;6.00;;;2.70;;
7215;SDS011;3649;48.798;9.798;2023-07-29T06:30:18;4.50;;;2.40;;
7215;SDS011;3649;48.798;9.798;2023-07-29T06:32:45;8.13;;;2.90;;
7215;SDS011;3649;48.798;9.798;2023-07-29T06:35:11;3.07;;;2.47;;
7215;SDS011;3649;48.798;9.798;2023-07-29T06:37:38;2.87;;;2.40;;
7215;SDS011;3649;48.798;9.798;2023-07-29T06:40:05;4.07;;;2.43;;
7215;SDS011;3649;48.798;9.798;2023-07-29T06:42:33;3.90;;;2.20;;
7215;SDS011;3649;48.798;9.798;2023-07-29T06:44:59;2.20;;;2.00;;
7215;SDS011;3649;48.798;9.798;2023-07-29T06:47:26;2.07;;;1.97;;
7215;SDS011;3649;48.798;9.798;2023-07-29T06:49:53;3.60;;;2.43;;
7215;SDS011;3649;48.798;9.798;2023-07-29T06:52:20;4.30;;;1.90;;
7215;SDS011;3649;48.798;9.798;2023-07-29T06:54:47;2.80;;;2.20;;
7215;SDS011;3649;48.798;9.798;2023-07-29T06:57:14;2.43;;;2.23;;
7215;SDS011;3649;48.798;9.798;2023-07-29T06:59:41;4.20;;;2.30;;
7215;SDS011;3649;48.798;9.798;2023-07-29T07:02:08;2.23;;;2.07;;
7215;SDS011;3649;48.798;9.798;2023-07-29T07:04:35;3.60;;;1.90;;
7215;SDS011;3649;48.798;9.798;2023-07-29T07:07:01;2.30;;;2.03;;
7215;SDS011;3649;48.798;9.798;2023-07-29T07:09:28;3.67;;;2.03;;
7215;SDS011;3649;48.798;9.798;2023-07-29T07:11:55;2.13;;;1.93;;
7215;SDS011;3649;48.798;9.798;2023-07-29T07:14:22;6.17;;;2.03;;
7215;SDS011;3649;48.798;9.798;2023-07-29T07:16:49;4.10;;;1.83;;
7215;SDS011;3649;48.798;9.798;2023-07-29T07:19:16;3.17;;;2.20;;
7215;SDS011;3649;48.798;9.798;2023-07-29T07:21:43;2.27;;;2.17;;
7215;SDS011;3649;48.798;9.798;2023-07-29T07:24:10;2.07;;;1.97;;
7215;SDS011;3649;48.798;9.798;2023-07-29T07:26:37;2.50;;;2.10;;
7215;SDS011;3649;48.798;9.798;2023-07-29T07:29:04;5.23;;;2.07;;
7215;SDS011;3649;48.798;9.798;2023-07-29T07:31:33;2.00;;;1.87;;
7215;SDS011;3649;48.798;9.798;2023-07-29T07:34:01;4.77;;;3.00;;
7215;SDS011;3649;48.798;9.798;2023-07-29T07:36:30;8.20;;;3.50;;
7215;SDS011;3649;48.798;9.798;2023-07-29T07:38:57;4.87;;;3.30;;
7215;SDS011;3649;48.798;9.798;2023-07-29T07:41:24;7.67;;;3.77;;
7215;SDS011;3649;48.798;9.798;2023-07-29T07:43:51;25.63;;;6.50;;
7215;SDS011;3649;48.798;9.798;2023-07-29T07:46:18;5.60;;;4.10;;
7215;SDS011;3649;48.798;9.798;2023-07-29T07:48:45;7.27;;;3.83;;
7215;SDS011;3649;48.798;9.798;2023-07-29T07:51:12;4.77;;;3.00;;
7215;SDS011;3649;48.798;9.798;2023-07-29T07:53:39;4.77;;;2.67;;
7215;SDS011;3649;48.798;9.798;2023-07-29T07:56:06;3.33;;;2.70;;
7215;SDS011;3649;48.798;9.798;2023-07-29T07:58:33;3.57;;;2.47;;
7215;SDS011;3649;48.798;9.798;2023-07-29T08:01:01;4.83;;;3.03;;
7215;SDS011;3649;48.798;9.798;2023-07-29T08:03:29;8.37;;;3.77;;
7215;SDS011;3649;48.798;9.798;2023-07-29T08:05:57;8.30;;;3.30;;
7215;SDS011;3649;48.798;9.798;2023-07-29T08:08:27;2.30;;;2.10;;
7215;SDS011;3649;48.798;9.798;2023-07-29T08:10:55;2.20;;;2.00;;
7215;SDS011;3649;48.798;9.798;2023-07-29T08:13:24;3.17;;;1.67;;
7215;SDS011;3649;48.798;9.798;2023-07-29T08:15:51;2.37;;;1.53;;
7215;SDS011;3649;48.798;9.798;2023-07-29T08:18:19;1.40;;;1.30;;
7215;SDS011;3649;48.798;9.798;2023-07-29T08:23:30;1.50;;;1.40;;
7215;SDS011;3649;48.798;9.798;2023-07-29T08:25:59;2.20;;;1.40;;
7215;SDS011;3649;48.798;9.798;2023-07-29T08:28:28;1.50;;;1.40;;
7215;SDS011;3649;48.798;9.798;2023-07-29T08:30:57;1.23;;;1.23;;
7215;SDS011;3649;48.798;9.798;2023-07-29T08:33:24;2.97;;;1.70;;
7215;SDS011;3649;48.798;9.798;2023-07-29T08:35:53;1.50;;;1.40;;
7215;SDS011;3649;48.798;9.798;2023-07-29T08:38:20;1.50;;;1.40;;
7215;SDS011;3649;48.798;9.798;2023-07-29T08:40:56;2.00;;;1.40;;
7215;SDS011;3649;48.798;9.798;2023-07-29T08:43:41;1.50;;;1.37;;
7215;SDS011;3649;48.798;9.798;2023-07-29T08:46:19;1.33;;;1.23;;
7215;SDS011;3649;48.798;9.798;2023-07-29T08:48:46;1.77;;;1.67;;
7215;SDS011;3649;48.798;9.798;2023-07-29T08:51:13;1.40;;;1.30;;
7215;SDS011;3649;48.798;9.798;2023-07-29T08:53:41;2.93;;;1.50;;
7215;SDS011;3649;48.798;9.798;2023-07-29T08:56:09;1.33;;;1.23;;
7215;SDS011;3649;48.798;9.798;2023-07-29T08:58:36;1.30;;;1.30;;
7215;SDS011;3649;48.798;9.798;2023-07-29T09:01:03;2.33;;;1.50;;
7215;SDS011;3649;48.798;9.798;2023-07-29T09:03:31;2.17;;;1.57;;
7215;SDS011;3649;48.798;9.798;2023-07-29T09:05:58;1.13;;;1.10;;
7215;SDS011;3649;48.798;9.798;2023-07-29T09:08:26;1.30;;;1.20;;
7215;SDS011;3649;48.798;9.798;2023-07-29T09:10:54;2.00;;;1.80;;
7215;SDS011;3649;48.798;9.798;2023-07-29T09:13:22;2.00;;;1.57;;
7215;SDS011;3649;48.798;9.798;2023-07-29T09:15:48;1.70;;;1.60;;
7215;SDS011;3649;48.798;9.798;2023-07-29T09:18:16;1.50;;;1.30;;
7215;SDS011;3649;48.798;9.798;2023-07-29T09:20:46;1.50;;;1.40;;
7215;SDS011;3649;48.798;9.798;2023-07-29T09:23:14;1.97;;;1.63;;
7215;SDS011;3649;48.798;9.798;2023-07-29T09:25:41;1.80;;;1.70;;
7215;SDS011;3649;48.798;9.798;2023-07-29T09:28:09;2.40;;;2.17;;
7215;SDS011;3649;48.798;9.798;2023-07-29T09:30:38;1.73;;;1.50;;
7215;SDS011;3649;48.798;9.798;2023-07-29T09:33:06;4.73;;;1.50;;
7215;SDS011;3649;48.798;9.798;2023-07-29T09:35:34;1.97;;;1.87;;
7215;SDS011;3649;48.798;9.798;2023-07-29T09:38:03;2.33;;;1.77;;
7215;SDS011;3649;48.798;9.798;2023-07-29T09:40:36;1.70;;;1.60;;
7215;SDS011;3649;48.798;9.798;2023-07-29T09:43:06;1.90;;;1.80;;
7215;SDS011;3649;48.798;9.798;2023-07-29T09:45:35;1.97;;;1.83;;
7215;SDS011;3649;48.798;9.798;2023-07-29T09:48:03;1.97;;;1.70;;
7215;SDS011;3649;48.798;9.798;2023-07-29T09:50:35;1.53;;;1.43;;
7215;SDS011;3649;48.798;9.798;2023-07-29T09:53:03;2.60;;;1.73;;
7215;SDS011;3649;48.798;9.798;2023-07-29T09:55:32;2.33;;;2.13;;
7215;SDS011;3649;48.798;9.798;2023-07-29T09:58:00;1.90;;;1.70;;
7215;SDS011;3649;48.798;9.798;2023-07-29T10:00:30;2.17;;;1.87;;
7215;SDS011;3649;48.798;9.798;2023-07-29T10:02:58;1.77;;;1.67;;
7215;SDS011;3649;48.798;9.798;2023-07-29T10:05:26;1.67;;;1.57;;
7215;SDS011;3649;48.798;9.798;2023-07-29T10:07:54;1.80;;;1.70;;
7215;SDS011;3649;48.798;9.798;2023-07-29T10:10:22;2.10;;;1.93;;
7215;SDS011;3649;48.798;9.798;2023-07-29T10:12:50;2.33;;;1.57;;
7215;SDS011;3649;48.798;9.798;2023-07-29T10:15:18;2.93;;;1.90;;
7215;SDS011;3649;48.798;9.798;2023-07-29T10:17:46;1.60;;;1.50;;
7215;SDS011;3649;48.798;9.798;2023-07-29T10:20:15;1.80;;;1.70;;
7215;SDS011;3649;48.798;9.798;2023-07-29T10:22:43;1.57;;;1.47;;
7215;SDS011;3649;48.798;9.798;2023-07-29T10:25:15;1.70;;;1.60;;
7215;SDS011;3649;48.798;9.798;2023-07-29T10:30:17;2.57;;;1.90;;
7215;SDS011;3649;48.798;9.798;2023-07-29T10:32:45;3.13;;;1.80;;
7215;SDS011;3649;48.798;9.798;2023-07-29T10:35:12;4.33;;;1.90;;
7215;SDS011;3649;48.798;9.798;2023-07-29T10:37:39;1.50;;;1.47;;
7215;SDS011;3649;48.798;9.798;2023-07-29T10:40:09;1.73;;;1.63;;
7215;SDS011;3649;48.798;9.798;2023-07-29T10:42:38;2.70;;;1.53;;
7215;SDS011;3649;48.798;9.798;2023-07-29T10:45:21;1.57;;;1.53;;
7215;SDS011;3649;48.798;9.798;2023-07-29T10:47:48;2.13;;;1.80;;
7215;SDS011;3649;48.798;9.798;2023-07-29T10:50:19;1.70;;;1.60;;
7215;SDS011;3649;48.798;9.798;2023-07-29T10:52:53;2.03;;;1.93;;
7215;SDS011;3649;48.798;9.798;2023-07-29T10:55:29;2.07;;;1.97;;
7215;SDS011;3649;48.798;9.798;2023-07-29T10:58:12;2.03;;;1.87;;
7215;SDS011;3649;48.798;9.798;2023-07-29T11:00:41;2.57;;;1.83;;
7215;SDS011;3649;48.798;9.798;2023-07-29T11:03:11;1.83;;;1.73;;
7215;SDS011;3649;48.798;9.798;2023-07-29T11:05:50;1.13;;;1.10;;
7215;SDS011;3649;48.798;9.798;2023-07-29T11:08:19;0.80;;;0.80;;
7215;SDS011;3649;48.798;9.798;2023-07-29T11:11:03;1.00;;;0.77;;
7215;SDS011;3649;48.798;9.798;2023-07-29T11:13:33;0.60;;;0.60;;
7215;SDS011;3649;48.798;9.798;2023-07-29T11:16:01;1.27;;;0.70;;
7215;SDS011;3649;48.798;9.798;2023-07-29T11:18:32;0.63;;;0.63;;
7215;SDS011;3649;48.798;9.798;2023-07-29T11:21:18;1.00;;;1.00;;
7215;SDS011;3649;48.798;9.798;2023-07-29T11:23:45;0.90;;;0.90;;
7215;SDS011;3649;48.798;9.798;2023-07-29T11:26:11;3.60;;;0.80;;
7215;SDS011;3649;48.798;9.798;2023-07-29T11:28:39;0.90;;;0.90;;
7215;SDS011;3649;48.798;9.798;2023-07-29T11:31:06;1.13;;;1.13;;
7215;SDS011;3649;48.798;9.798;2023-07-29T11:33:34;0.93;;;0.93;;
7215;SDS011;3649;48.798;9.798;2023-07-29T11:36:00;1.40;;;1.33;;
7215;SDS011;3649;48.798;9.798;2023-07-29T11:38:27;1.10;;;1.10;;
7215;SDS011;3649;48.798;9.798;2023-07-29T11:41:01;0.90;;;0.90;;
7215;SDS011;3649;48.798;9.798;2023-07-29T11:43:29;2.40;;;0.90;;
7215;SDS011;3649;48.798;9.798;2023-07-29T11:46:00;1.30;;;1.20;;
7215;SDS011;3649;48.798;9.798;2023-07-29T11:48:32;0.97;;;0.97;;
7215;SDS011;3649;48.798;9.798;2023-07-29T11:50:59;1.87;;;1.30;;
7215;SDS011;3649;48.798;9.798;2023-07-29T11:53:29;1.07;;;1.00;;
7215;SDS011;3649;48.798;9.798;2023-07-29T11:55:57;0.90;;;0.90;;
7215;SDS011;3649;48.798;9.798;2023-07-29T11:58:25;1.00;;;0.87;;
7215;SDS011;3649;48.798;9.798;2023-07-29T12:00:52;1.83;;;1.30;;
7215;SDS011;3649;48.798;9.798;2023-07-29T12:03:20;1.03;;;1.03;;
7215;SDS011;3649;48.798;9.798;2023-07-29T12:05:48;1.00;;;1.00;;
7215;SDS011;3649;48.798;9.798;2023-07-29T12:08:15;1.60;;;1.40;;
7215;SDS011;3649;48.798;9.798;2023-07-29T12:10:42;1.30;;;1.20;;
7215;SDS011;3649;48.798;9.798;2023-07-29T12:13:10;1.00;;;1.00;;
7215;SDS011;3649;48.798;9.798;2023-07-29T12:15:37;2.77;;;1.20;;
7215;SDS011;3649;48.798;9.798;2023-07-29T12:18:06;1.47;;;1.03;;
7215;SDS011;3649;48.798;9.798;2023-07-29T12:20:33;1.33;;;1.30;;
7215;SDS011;3649;48.798;9.798;2023-07-29T12:23:00;1.50;;;1.40;;
7215;SDS011;3649;48.798;9.798;2023-07-29T12:25:29;2.00;;;1.10;;
7215;SDS011;3649;48.798;9.798;2023-07-29T12:27:56;2.17;;;1.10;;
7215;SDS011;3649;48.798;9.798;2023-07-29T12:30:28;1.57;;;1.47;;
7215;SDS011;3649;48.798;9.798;2023-07-29T12:32:54;1.30;;;1.20;;
7215;SDS011;3649;48.798;9.798;2023-07-29T12:35:21;3.70;;;1.40;;
7215;SDS011;3649;48.798;9.798;2023-07-29T12:37:58;1.20;;;1.20;;
7215;SDS011;3649;48.798;9.798;2023-07-29T12:40:26;1.30;;;1.30;;
7215;SDS011;3649;48.798;9.798;2023-07-29T12:42:53;1.50;;;1.30;;
7215;SDS011;3649;48.798;9.798;2023-07-29T12:45:21;1.30;;;1.23;;
7215;SDS011;3649;48.798;9.798;2023-07-29T12:47:52;1.53;;;1.30;;
7215;SDS011;3649;48.798;9.798;2023-07-29T12:50:20;1.63;;;1.50;;
7215;SDS011;3649;48.798;9.798;2023-07-29T12:52:47;1.60;;;1.50;;
7215;SDS011;3649;48.798;9.798;2023-07-29T12:55:14;2.40;;;1.50;;
7215;SDS011;3649;48.798;9.798;2023-07-29T12:57:44;1.87;;;1.50;;
7215;SDS011;3649;48.798;9.798;2023-07-29T13:00:11;1.60;;;1.50;;
7215;SDS011;3649;48.798;9.798;2023-07-29T13:02:38;2.17;;;1.53;;
7215;SDS011;3649;48.798;9.798;2023-07-29T13:05:06;1.70;;;1.50;;
7215;SDS011;3649;48.798;9.798;2023-07-29T13:07:35;1.50;;;1.40;;
7215;SDS011;3649;48.798;9.798;2023-07-29T13:10:02;1.97;;;1.67;;
7215;SDS011;3649;48.798;9.798;2023-07-29T13:12:29;1.30;;;1.20;;
7215;SDS011;3649;48.798;9.798;2023-07-29T13:14:56;1.40;;;1.27;;
7215;SDS011;3649;48.798;9.798;2023-07-29T13:17:23;1.50;;;1.40;;
7215;SDS011;3649;48.798;9.798;2023-07-29T13:19:50;1.30;;;1.20;;
7215;SDS011;3649;48.798;9.798;2023-07-29T13:22:17;1.53;;;1.43;;
7215;SDS011;3649;48.798;9.798;2023-07-29T13:24:44;1.47;;;1.37;;
7215;SDS011;3649;48.798;9.798;2023-07-29T13:27:10;1.60;;;1.50;;
7215;SDS011;3649;48.798;9.798;2023-07-29T13:29:38;2.40;;;1.20;;
7215;SDS011;3649;48.798;9.798;2023-07-29T13:32:06;1.27;;;1.23;;
7215;SDS011;3649;48.798;9.798;2023-07-29T13:34:34;1.67;;;1.47;;
7215;SDS011;3649;48.798;9.798;2023-07-29T13:37:01;2.60;;;1.70;;
7215;SDS011;3649;48.798;9.798;2023-07-29T13:39:28;1.67;;;1.57;;
7215;SDS011;3649;48.798;9.798;2023-07-29T13:41:55;1.17;;;1.17;;
7215;SDS011;3649;48.798;9.798;2023-07-29T13:44:22;1.47;;;1.37;;
7215;SDS011;3649;48.798;9.798;2023-07-29T13:46:49;1.60;;;1.40;;
7215;SDS011;3649;48.798;9.798;2023-07-29T13:49:15;2.57;;;1.40;;
7215;SDS011;3649;48.798;9.798;2023-07-29T13:51:43;1.93;;;1.80;;
7215;SDS011;3649;48.798;9.798;2023-07-29T13:54:09;2.33;;;1.63;;
7215;SDS011;3649;48.798;9.798;2023-07-29T13:56:36;1.80;;;1.57;;
7215;SDS011;3649;48.798;9.798;2023-07-29T13:59:04;1.67;;;1.57;;
7215;SDS011;3649;48.798;9.798;2023-07-29T14:01:31;1.40;;;1.30;;
7215;SDS011;3649;48.798;9.798;2023-07-29T14:03:59;1.90;;;1.80;;
7215;SDS011;3649;48.798;9.798;2023-07-29T14:06:25;1.60;;;1.50;;
7215;SDS011;3649;48.798;9.798;2023-07-29T14:09:09;1.37;;;1.37;;
7215;SDS011;3649;48.798;9.798;2023-07-29T14:11:36;2.97;;;1.80;;
7215;SDS011;3649;48.798;9.798;2023-07-29T14:14:03;1.90;;;1.80;;
7215;SDS011;3649;48.798;9.798;2023-07-29T14:16:30;3.27;;;1.70;;
7215;SDS011;3649;48.798;9.798;2023-07-29T14:18:57;2.10;;;1.57;;
7215;SDS011;3649;48.798;9.798;2023-07-29T14:21:24;2.00;;;1.40;;
7215;SDS011;3649;48.798;9.798;2023-07-29T14:23:51;1.27;;;1.23;;
7215;SDS011;3649;48.798;9.798;2023-07-29T14:26:18;1.50;;;1.50;;
7215;SDS011;3649;48.798;9.798;2023-07-29T14:28:44;1.93;;;1.33;;
7215;SDS011;3649;48.798;9.798;2023-07-29T14:31:11;2.57;;;1.37;;
7215;SDS011;3649;48.798;9.798;2023-07-29T14:33:39;2.00;;;1.80;;
7215;SDS011;3649;48.798;9.798;2023-07-29T14:36:06;1.70;;;1.60;;
7215;SDS011;3649;48.798;9.798;2023-07-29T14:38:34;2.60;;;2.00;;
7215;SDS011;3649;48.798;9.798;2023-07-29T14:41:02;2.17;;;1.83;;
7215;SDS011;3649;48.798;9.798;2023-07-29T14:43:30;1.50;;;1.40;;
7215;SDS011;3649;48.798;9.798;2023-07-29T14:45:57;1.77;;;1.67;;
7215;SDS011;3649;48.798;9.798;2023-07-29T14:48:24;1.63;;;1.53;;
7215;SDS011;3649;48.798;9.798;2023-07-29T14:50:51;1.60;;;1.50;;
7215;SDS011;3649;48.798;9.798;2023-07-29T14:53:18;1.43;;;1.33;;
7215;SDS011;3649;48.798;9.798;2023-07-29T14:55:45;1.83;;;1.73;;
7215;SDS011;3649;48.798;9.798;2023-07-29T14:58:12;2.20;;;2.00;;
7215;SDS011;3649;48.798;9.798;2023-07-29T15:00:39;1.57;;;1.47;;
7215;SDS011;3649;48.798;9.798;2023-07-29T15:03:05;1.80;;;1.70;;
7215;SDS011;3649;48.798;9.798;2023-07-29T15:05:34;1.80;;;1.60;;
7215;SDS011;3649;48.798;9.798;2023-07-29T15:08:00;2.03;;;1.60;;
7215;SDS011;3649;48.798;9.798;2023-07-29T15:10:27;1.90;;;1.70;;
7215;SDS011;3649;48.798;9.798;2023-07-29T15:12:54;2.00;;;1.90;;
7215;SDS011;3649;48.798;9.798;2023-07-29T15:15:21;2.07;;;1.70;;
7215;SDS011;3649;48.798;9.798;2023-07-29T15:17:48;3.07;;;1.80;;
7215;SDS011;3649;48.798;9.798;2023-07-29T15:20:15;1.93;;;1.83;;
7215;SDS011;3649;48.798;9.798;2023-07-29T15:22:42;1.83;;;1.73;;
7215;SDS011;3649;48.798;9.798;2023-07-29T15:25:09;1.80;;;1.70;;
7215;SDS011;3649;48.798;9.798;2023-07-29T15:27:37;2.20;;;2.10;;
7215;SDS011;3649;48.798;9.798;2023-07-29T15:30:05;1.73;;;1.63;;
7215;SDS011;3649;48.798;9.798;2023-07-29T15:32:33;2.37;;;1.93;;
7215;SDS011;3649;48.798;9.798;2023-07-29T15:35:00;2.23;;;1.80;;
7215;SDS011;3649;48.798;9.798;2023-07-29T15:37:27;2.00;;;1.80;;
7215;SDS011;3649;48.798;9.798;2023-07-29T15:39:54;2.23;;;1.50;;